sensor_id;sensor_type;location;lat;lon;timestamp;P1;durP1;ratioP1;P2;durP2;ratioP2
19589;SDS011;12231;42.782;23.388;2023-07-02T00:01:40;5.28;;;4.03;;
19589;SDS011;12231;42.782;23.388;2023-07-02T00:04:05;6.55;;;4.57;;
19589;SDS011;12231;42.782;23.388;2023-07-02T00:06:33;7.93;;;4.60;;
19589;SDS011;12231;42.782;23.388;2023-07-02T00:08:59;8.63;;;4.25;;
19589;SDS011;12231;42.782;23.388;2023-07-02T00:11:24;8.40;;;4.00;;
19589;SDS011;12231;42.782;23.388;2023-07-02T00:13:49;7.15;;;4.38;;
19589;SDS011;12231;42.782;23.388;2023-07-02T00:16:14;6.32;;;3.55;;
19589;SDS011;12231;42.782;23.388;2023-07-02T00:18:40;7.63;;;3.90;;
19589;SDS011;12231;42.782;23.388;2023-07-02T00:21:05;7.70;;;4.60;;
19589;SDS011;12231;42.782;23.388;2023-07-02T00:23:30;5.40;;;3.60;;
19589;SDS011;12231;42.782;23.388;2023-07-02T00:25:58;6.07;;;3.63;;
19589;SDS011;12231;42.782;23.388;2023-07-02T00:28:24;4.78;;;3.45;;
19589;SDS011;12231;42.782;23.388;2023-07-02T00:30:49;6.45;;;4.15;;
19589;SDS011;12231;42.782;23.388;2023-07-02T00:33:15;4.55;;;3.30;;
19589;SDS011;12231;42.782;23.388;2023-07-02T00:35:40;4.88;;;3.63;;
19589;SDS011;12231;42.782;23.388;2023-07-02T00:38:05;6.95;;;3.50;;
19589;SDS011;12231;42.782;23.388;2023-07-02T00:40:30;4.32;;;3.15;;
19589;SDS011;12231;42.782;23.388;2023-07-02T00:42:56;4.88;;;3.60;;
19589;SDS011;12231;42.782;23.388;2023-07-02T00:45:21;6.50;;;3.70;;
19589;SDS011;12231;42.782;23.388;2023-07-02T00:47:47;4.88;;;3.50;;
19589;SDS011;12231;42.782;23.388;2023-07-02T00:50:12;5.95;;;3.78;;
19589;SDS011;12231;42.782;23.388;2023-07-02T00:52:37;8.45;;;3.47;;
19589;SDS011;12231;42.782;23.388;2023-07-02T00:55:03;5.10;;;3.78;;
19589;SDS011;12231;42.782;23.388;2023-07-02T00:57:28;4.28;;;3.40;;
19589;SDS011;12231;42.782;23.388;2023-07-02T00:59:55;5.68;;;3.55;;
19589;SDS011;12231;42.782;23.388;2023-07-02T01:02:20;5.18;;;3.22;;
19589;SDS011;12231;42.782;23.388;2023-07-02T01:04:47;5.88;;;4.20;;
19589;SDS011;12231;42.782;23.388;2023-07-02T01:07:14;5.80;;;3.13;;
19589;SDS011;12231;42.782;23.388;2023-07-02T01:09:39;4.25;;;3.25;;
19589;SDS011;12231;42.782;23.388;2023-07-02T01:12:06;7.38;;;3.60;;
19589;SDS011;12231;42.782;23.388;2023-07-02T01:16:58;4.25;;;3.17;;
19589;SDS011;12231;42.782;23.388;2023-07-02T01:21:57;6.82;;;3.22;;
19589;SDS011;12231;42.782;23.388;2023-07-02T01:24:23;6.93;;;3.53;;
19589;SDS011;12231;42.782;23.388;2023-07-02T01:26:48;5.95;;;4.20;;
19589;SDS011;12231;42.782;23.388;2023-07-02T01:29:17;6.82;;;4.13;;
19589;SDS011;12231;42.782;23.388;2023-07-02T01:31:42;9.30;;;5.32;;
19589;SDS011;12231;42.782;23.388;2023-07-02T01:34:08;8.68;;;5.18;;
19589;SDS011;12231;42.782;23.388;2023-07-02T01:36:34;5.57;;;4.25;;
19589;SDS011;12231;42.782;23.388;2023-07-02T01:38:59;6.03;;;4.38;;
19589;SDS011;12231;42.782;23.388;2023-07-02T01:41:24;6.43;;;4.10;;
19589;SDS011;12231;42.782;23.388;2023-07-02T01:43:49;5.90;;;4.05;;
19589;SDS011;12231;42.782;23.388;2023-07-02T01:46:15;7.75;;;3.97;;
19589;SDS011;12231;42.782;23.388;2023-07-02T01:48:40;5.90;;;3.85;;
19589;SDS011;12231;42.782;23.388;2023-07-02T01:51:05;9.68;;;3.67;;
19589;SDS011;12231;42.782;23.388;2023-07-02T01:53:30;5.40;;;4.00;;
19589;SDS011;12231;42.782;23.388;2023-07-02T01:55:56;4.93;;;3.63;;
19589;SDS011;12231;42.782;23.388;2023-07-02T01:58:21;5.72;;;3.80;;
19589;SDS011;12231;42.782;23.388;2023-07-02T02:00:47;5.72;;;3.60;;
19589;SDS011;12231;42.782;23.388;2023-07-02T02:03:12;9.30;;;3.78;;
19589;SDS011;12231;42.782;23.388;2023-07-02T02:05:37;5.70;;;3.53;;
19589;SDS011;12231;42.782;23.388;2023-07-02T02:08:03;4.20;;;3.70;;
19589;SDS011;12231;42.782;23.388;2023-07-02T02:10:28;5.45;;;4.25;;
19589;SDS011;12231;42.782;23.388;2023-07-02T02:12:53;7.57;;;3.90;;
19589;SDS011;12231;42.782;23.388;2023-07-02T02:15:19;8.32;;;3.88;;
19589;SDS011;12231;42.782;23.388;2023-07-02T02:17:44;8.20;;;4.25;;
19589;SDS011;12231;42.782;23.388;2023-07-02T02:20:10;5.75;;;3.38;;
19589;SDS011;12231;42.782;23.388;2023-07-02T02:22:35;7.22;;;4.18;;
19589;SDS011;12231;42.782;23.388;2023-07-02T02:25:01;4.60;;;3.58;;
19589;SDS011;12231;42.782;23.388;2023-07-02T02:27:26;7.88;;;3.97;;
19589;SDS011;12231;42.782;23.388;2023-07-02T02:29:52;6.03;;;3.90;;
19589;SDS011;12231;42.782;23.388;2023-07-02T02:32:17;5.78;;;3.50;;
19589;SDS011;12231;42.782;23.388;2023-07-02T02:34:44;5.32;;;3.72;;
19589;SDS011;12231;42.782;23.388;2023-07-02T02:37:09;6.85;;;3.53;;
19589;SDS011;12231;42.782;23.388;2023-07-02T02:39:35;5.95;;;3.60;;
19589;SDS011;12231;42.782;23.388;2023-07-02T02:42:00;6.63;;;4.13;;
19589;SDS011;12231;42.782;23.388;2023-07-02T02:44:25;8.88;;;3.65;;
19589;SDS011;12231;42.782;23.388;2023-07-02T02:46:50;5.68;;;3.53;;
19589;SDS011;12231;42.782;23.388;2023-07-02T02:49:16;5.38;;;4.00;;
19589;SDS011;12231;42.782;23.388;2023-07-02T02:51:41;4.07;;;3.65;;
19589;SDS011;12231;42.782;23.388;2023-07-02T02:54:06;7.57;;;3.45;;
19589;SDS011;12231;42.782;23.388;2023-07-02T02:56:31;8.10;;;4.45;;
19589;SDS011;12231;42.782;23.388;2023-07-02T02:58:56;9.15;;;4.40;;
19589;SDS011;12231;42.782;23.388;2023-07-02T03:01:22;7.00;;;3.75;;
19589;SDS011;12231;42.782;23.388;2023-07-02T03:03:47;8.05;;;4.20;;
19589;SDS011;12231;42.782;23.388;2023-07-02T03:06:13;8.85;;;4.72;;
19589;SDS011;12231;42.782;23.388;2023-07-02T03:08:39;8.00;;;3.92;;
19589;SDS011;12231;42.782;23.388;2023-07-02T03:11:04;9.23;;;5.18;;
19589;SDS011;12231;42.782;23.388;2023-07-02T03:13:31;6.93;;;4.22;;
19589;SDS011;12231;42.782;23.388;2023-07-02T03:15:56;9.88;;;4.93;;
19589;SDS011;12231;42.782;23.388;2023-07-02T03:18:21;7.43;;;4.68;;
19589;SDS011;12231;42.782;23.388;2023-07-02T03:20:46;6.78;;;4.13;;
19589;SDS011;12231;42.782;23.388;2023-07-02T03:23:12;9.45;;;5.15;;
19589;SDS011;12231;42.782;23.388;2023-07-02T03:25:37;7.30;;;4.82;;
19589;SDS011;12231;42.782;23.388;2023-07-02T03:28:02;8.13;;;4.05;;
19589;SDS011;12231;42.782;23.388;2023-07-02T03:30:27;9.05;;;4.78;;
19589;SDS011;12231;42.782;23.388;2023-07-02T03:32:53;7.07;;;4.40;;
19589;SDS011;12231;42.782;23.388;2023-07-02T03:35:18;10.68;;;5.22;;
19589;SDS011;12231;42.782;23.388;2023-07-02T03:37:43;9.63;;;5.05;;
19589;SDS011;12231;42.782;23.388;2023-07-02T03:40:09;9.50;;;4.70;;
19589;SDS011;12231;42.782;23.388;2023-07-02T03:42:34;9.20;;;5.18;;
19589;SDS011;12231;42.782;23.388;2023-07-02T03:44:59;9.02;;;4.88;;
19589;SDS011;12231;42.782;23.388;2023-07-02T03:47:24;8.30;;;4.05;;
19589;SDS011;12231;42.782;23.388;2023-07-02T03:49:50;6.57;;;4.30;;
19589;SDS011;12231;42.782;23.388;2023-07-02T03:52:15;7.93;;;3.95;;
19589;SDS011;12231;42.782;23.388;2023-07-02T03:54:40;10.48;;;4.72;;
19589;SDS011;12231;42.782;23.388;2023-07-02T03:57:06;9.40;;;4.90;;
19589;SDS011;12231;42.782;23.388;2023-07-02T03:59:31;9.02;;;5.13;;
19589;SDS011;12231;42.782;23.388;2023-07-02T04:01:56;9.23;;;5.63;;
19589;SDS011;12231;42.782;23.388;2023-07-02T04:04:22;12.40;;;5.50;;
19589;SDS011;12231;42.782;23.388;2023-07-02T04:06:47;7.05;;;5.28;;
19589;SDS011;12231;42.782;23.388;2023-07-02T04:09:12;8.98;;;5.25;;
19589;SDS011;12231;42.782;23.388;2023-07-02T04:11:37;10.68;;;5.72;;
19589;SDS011;12231;42.782;23.388;2023-07-02T04:14:03;5.65;;;4.20;;
19589;SDS011;12231;42.782;23.388;2023-07-02T04:16:28;4.95;;;4.25;;
19589;SDS011;12231;42.782;23.388;2023-07-02T04:18:53;9.18;;;4.50;;
19589;SDS011;12231;42.782;23.388;2023-07-02T04:21:18;7.28;;;4.10;;
19589;SDS011;12231;42.782;23.388;2023-07-02T04:23:43;6.50;;;4.13;;
19589;SDS011;12231;42.782;23.388;2023-07-02T04:26:09;6.53;;;4.85;;
19589;SDS011;12231;42.782;23.388;2023-07-02T04:28:35;10.98;;;4.78;;
19589;SDS011;12231;42.782;23.388;2023-07-02T04:31:00;9.23;;;4.45;;
19589;SDS011;12231;42.782;23.388;2023-07-02T04:33:25;8.13;;;4.45;;
19589;SDS011;12231;42.782;23.388;2023-07-02T04:35:50;7.43;;;4.82;;
19589;SDS011;12231;42.782;23.388;2023-07-02T04:38:16;4.07;;;3.50;;
19589;SDS011;12231;42.782;23.388;2023-07-02T04:40:41;6.63;;;4.47;;
19589;SDS011;12231;42.782;23.388;2023-07-02T04:43:09;7.00;;;3.85;;
19589;SDS011;12231;42.782;23.388;2023-07-02T04:45:35;8.55;;;4.40;;
19589;SDS011;12231;42.782;23.388;2023-07-02T04:48:02;6.82;;;3.80;;
19589;SDS011;12231;42.782;23.388;2023-07-02T04:50:27;8.50;;;4.80;;
19589;SDS011;12231;42.782;23.388;2023-07-02T04:52:52;6.00;;;4.70;;
19589;SDS011;12231;42.782;23.388;2023-07-02T04:55:17;6.28;;;4.25;;
19589;SDS011;12231;42.782;23.388;2023-07-02T04:57:43;9.20;;;4.65;;
19589;SDS011;12231;42.782;23.388;2023-07-02T05:00:09;5.18;;;4.30;;
19589;SDS011;12231;42.782;23.388;2023-07-02T05:02:35;6.00;;;4.47;;
19589;SDS011;12231;42.782;23.388;2023-07-02T05:05:00;5.97;;;4.18;;
19589;SDS011;12231;42.782;23.388;2023-07-02T05:07:25;7.15;;;4.57;;
19589;SDS011;12231;42.782;23.388;2023-07-02T05:09:50;7.05;;;4.22;;
19589;SDS011;12231;42.782;23.388;2023-07-02T05:12:17;5.93;;;4.15;;
19589;SDS011;12231;42.782;23.388;2023-07-02T05:14:42;9.35;;;5.55;;
19589;SDS011;12231;42.782;23.388;2023-07-02T05:17:08;7.55;;;4.70;;
19589;SDS011;12231;42.782;23.388;2023-07-02T05:19:33;8.75;;;5.00;;
19589;SDS011;12231;42.782;23.388;2023-07-02T05:21:58;9.85;;;5.43;;
19589;SDS011;12231;42.782;23.388;2023-07-02T05:24:23;12.55;;;5.72;;
19589;SDS011;12231;42.782;23.388;2023-07-02T05:26:48;10.23;;;5.53;;
19589;SDS011;12231;42.782;23.388;2023-07-02T05:29:15;7.60;;;5.07;;
19589;SDS011;12231;42.782;23.388;2023-07-02T05:31:41;7.95;;;5.00;;
19589;SDS011;12231;42.782;23.388;2023-07-02T05:34:06;9.48;;;5.60;;
19589;SDS011;12231;42.782;23.388;2023-07-02T05:36:32;9.00;;;5.47;;
19589;SDS011;12231;42.782;23.388;2023-07-02T05:38:57;11.60;;;5.95;;
19589;SDS011;12231;42.782;23.388;2023-07-02T05:41:22;8.70;;;5.57;;
19589;SDS011;12231;42.782;23.388;2023-07-02T05:43:47;7.20;;;5.40;;
19589;SDS011;12231;42.782;23.388;2023-07-02T05:46:13;12.15;;;6.22;;
19589;SDS011;12231;42.782;23.388;2023-07-02T05:48:39;9.75;;;5.20;;
19589;SDS011;12231;42.782;23.388;2023-07-02T05:51:04;9.77;;;5.55;;
19589;SDS011;12231;42.782;23.388;2023-07-02T05:53:30;7.68;;;5.10;;
19589;SDS011;12231;42.782;23.388;2023-07-02T05:55:55;8.88;;;5.68;;
19589;SDS011;12231;42.782;23.388;2023-07-02T05:58:20;7.63;;;4.78;;
19589;SDS011;12231;42.782;23.388;2023-07-02T06:00:46;7.75;;;4.95;;
19589;SDS011;12231;42.782;23.388;2023-07-02T06:03:15;13.70;;;5.00;;
19589;SDS011;12231;42.782;23.388;2023-07-02T06:05:44;9.15;;;5.13;;
19589;SDS011;12231;42.782;23.388;2023-07-02T06:08:09;9.88;;;5.53;;
19589;SDS011;12231;42.782;23.388;2023-07-02T06:10:34;8.75;;;5.72;;
19589;SDS011;12231;42.782;23.388;2023-07-02T06:12:59;10.75;;;5.13;;
19589;SDS011;12231;42.782;23.388;2023-07-02T06:15:25;7.88;;;4.97;;
19589;SDS011;12231;42.782;23.388;2023-07-02T06:17:50;8.15;;;5.45;;
19589;SDS011;12231;42.782;23.388;2023-07-02T06:20:15;8.07;;;5.57;;
19589;SDS011;12231;42.782;23.388;2023-07-02T06:22:40;6.57;;;5.13;;
19589;SDS011;12231;42.782;23.388;2023-07-02T06:25:07;9.98;;;5.65;;
19589;SDS011;12231;42.782;23.388;2023-07-02T06:27:32;12.13;;;6.10;;
19589;SDS011;12231;42.782;23.388;2023-07-02T06:29:57;7.53;;;5.38;;
19589;SDS011;12231;42.782;23.388;2023-07-02T06:32:22;11.70;;;5.68;;
19589;SDS011;12231;42.782;23.388;2023-07-02T06:34:48;9.00;;;5.28;;
19589;SDS011;12231;42.782;23.388;2023-07-02T06:37:13;8.93;;;5.68;;
19589;SDS011;12231;42.782;23.388;2023-07-02T06:39:38;8.43;;;5.85;;
19589;SDS011;12231;42.782;23.388;2023-07-02T06:42:04;9.50;;;5.50;;
19589;SDS011;12231;42.782;23.388;2023-07-02T06:44:29;8.80;;;6.15;;
19589;SDS011;12231;42.782;23.388;2023-07-02T06:46:54;7.78;;;5.15;;
19589;SDS011;12231;42.782;23.388;2023-07-02T06:49:20;9.23;;;5.40;;
19589;SDS011;12231;42.782;23.388;2023-07-02T06:51:45;9.10;;;5.78;;
19589;SDS011;12231;42.782;23.388;2023-07-02T06:54:11;7.47;;;5.35;;
19589;SDS011;12231;42.782;23.388;2023-07-02T06:56:38;7.38;;;5.20;;
19589;SDS011;12231;42.782;23.388;2023-07-02T06:59:03;6.70;;;4.35;;
19589;SDS011;12231;42.782;23.388;2023-07-02T07:01:28;8.55;;;5.22;;
19589;SDS011;12231;42.782;23.388;2023-07-02T07:03:54;8.60;;;5.45;;
19589;SDS011;12231;42.782;23.388;2023-07-02T07:06:19;8.38;;;5.28;;
19589;SDS011;12231;42.782;23.388;2023-07-02T07:08:45;10.98;;;5.10;;
19589;SDS011;12231;42.782;23.388;2023-07-02T07:11:10;5.50;;;4.90;;
19589;SDS011;12231;42.782;23.388;2023-07-02T07:13:35;6.07;;;4.70;;
19589;SDS011;12231;42.782;23.388;2023-07-02T07:16:00;6.68;;;4.95;;
19589;SDS011;12231;42.782;23.388;2023-07-02T07:18:26;8.07;;;5.32;;
19589;SDS011;12231;42.782;23.388;2023-07-02T07:20:51;8.95;;;5.28;;
19589;SDS011;12231;42.782;23.388;2023-07-02T07:23:17;7.00;;;4.82;;
19589;SDS011;12231;42.782;23.388;2023-07-02T07:25:43;7.45;;;4.88;;
19589;SDS011;12231;42.782;23.388;2023-07-02T07:28:08;6.93;;;4.75;;
19589;SDS011;12231;42.782;23.388;2023-07-02T07:30:37;6.88;;;4.80;;
19589;SDS011;12231;42.782;23.388;2023-07-02T07:33:02;6.88;;;4.40;;
19589;SDS011;12231;42.782;23.388;2023-07-02T07:35:27;6.30;;;4.57;;
19589;SDS011;12231;42.782;23.388;2023-07-02T07:37:53;8.65;;;5.28;;
19589;SDS011;12231;42.782;23.388;2023-07-02T07:40:18;8.02;;;4.57;;
19589;SDS011;12231;42.782;23.388;2023-07-02T07:42:43;8.02;;;4.85;;
19589;SDS011;12231;42.782;23.388;2023-07-02T07:45:09;7.22;;;4.63;;
19589;SDS011;12231;42.782;23.388;2023-07-02T07:47:35;6.22;;;4.60;;
19589;SDS011;12231;42.782;23.388;2023-07-02T07:50:00;4.78;;;3.83;;
19589;SDS011;12231;42.782;23.388;2023-07-02T07:52:25;6.65;;;3.95;;
19589;SDS011;12231;42.782;23.388;2023-07-02T07:54:51;7.30;;;4.95;;
19589;SDS011;12231;42.782;23.388;2023-07-02T07:57:17;7.93;;;4.70;;
19589;SDS011;12231;42.782;23.388;2023-07-02T07:59:42;6.28;;;4.50;;
19589;SDS011;12231;42.782;23.388;2023-07-02T08:02:07;8.32;;;5.30;;
19589;SDS011;12231;42.782;23.388;2023-07-02T08:04:34;7.25;;;4.68;;
19589;SDS011;12231;42.782;23.388;2023-07-02T08:06:59;7.38;;;5.35;;
19589;SDS011;12231;42.782;23.388;2023-07-02T08:09:24;10.35;;;5.63;;
19589;SDS011;12231;42.782;23.388;2023-07-02T08:11:50;9.52;;;5.95;;
19589;SDS011;12231;42.782;23.388;2023-07-02T08:14:16;9.82;;;5.57;;
19589;SDS011;12231;42.782;23.388;2023-07-02T08:16:41;11.73;;;6.75;;
19589;SDS011;12231;42.782;23.388;2023-07-02T08:19:06;9.80;;;5.85;;
19589;SDS011;12231;42.782;23.388;2023-07-02T08:21:31;10.82;;;6.28;;
19589;SDS011;12231;42.782;23.388;2023-07-02T08:23:57;8.98;;;5.97;;
19589;SDS011;12231;42.782;23.388;2023-07-02T08:26:22;10.20;;;6.72;;
19589;SDS011;12231;42.782;23.388;2023-07-02T08:28:48;8.63;;;5.90;;
19589;SDS011;12231;42.782;23.388;2023-07-02T08:31:13;11.23;;;6.15;;
19589;SDS011;12231;42.782;23.388;2023-07-02T08:33:38;8.80;;;5.38;;
19589;SDS011;12231;42.782;23.388;2023-07-02T08:36:03;8.68;;;5.97;;
19589;SDS011;12231;42.782;23.388;2023-07-02T08:38:29;7.75;;;5.53;;
19589;SDS011;12231;42.782;23.388;2023-07-02T08:40:54;7.60;;;5.72;;
19589;SDS011;12231;42.782;23.388;2023-07-02T08:43:19;12.13;;;5.75;;
19589;SDS011;12231;42.782;23.388;2023-07-02T08:45:44;9.65;;;6.00;;
19589;SDS011;12231;42.782;23.388;2023-07-02T08:48:10;9.75;;;5.88;;
19589;SDS011;12231;42.782;23.388;2023-07-02T08:50:35;8.43;;;5.57;;
19589;SDS011;12231;42.782;23.388;2023-07-02T08:53:00;10.52;;;5.55;;
19589;SDS011;12231;42.782;23.388;2023-07-02T08:55:26;9.73;;;5.32;;
19589;SDS011;12231;42.782;23.388;2023-07-02T08:57:55;9.23;;;5.68;;
19589;SDS011;12231;42.782;23.388;2023-07-02T09:00:20;9.10;;;5.78;;
19589;SDS011;12231;42.782;23.388;2023-07-02T09:02:46;7.00;;;5.63;;
19589;SDS011;12231;42.782;23.388;2023-07-02T09:05:12;8.68;;;5.55;;
19589;SDS011;12231;42.782;23.388;2023-07-02T09:07:44;10.65;;;5.20;;
19589;SDS011;12231;42.782;23.388;2023-07-02T09:10:10;7.30;;;5.90;;
19589;SDS011;12231;42.782;23.388;2023-07-02T09:12:35;8.63;;;5.07;;
19589;SDS011;12231;42.782;23.388;2023-07-02T09:15:04;7.22;;;5.22;;
19589;SDS011;12231;42.782;23.388;2023-07-02T09:17:37;7.60;;;5.10;;
19589;SDS011;12231;42.782;23.388;2023-07-02T09:20:03;6.43;;;4.68;;
19589;SDS011;12231;42.782;23.388;2023-07-02T09:22:33;10.73;;;5.78;;
19589;SDS011;12231;42.782;23.388;2023-07-02T09:24:59;7.03;;;5.05;;
19589;SDS011;12231;42.782;23.388;2023-07-02T09:27:37;7.30;;;5.15;;
19589;SDS011;12231;42.782;23.388;2023-07-02T09:30:07;8.55;;;5.18;;
19589;SDS011;12231;42.782;23.388;2023-07-02T09:32:32;7.47;;;5.05;;
19589;SDS011;12231;42.782;23.388;2023-07-02T09:34:58;6.82;;;4.43;;
19589;SDS011;12231;42.782;23.388;2023-07-02T09:37:23;6.90;;;4.25;;
19589;SDS011;12231;42.782;23.388;2023-07-02T09:39:52;5.80;;;4.25;;
19589;SDS011;12231;42.782;23.388;2023-07-02T09:42:19;9.00;;;5.25;;
19589;SDS011;12231;42.782;23.388;2023-07-02T09:44:45;7.35;;;5.05;;
19589;SDS011;12231;42.782;23.388;2023-07-02T09:47:10;7.35;;;5.70;;
19589;SDS011;12231;42.782;23.388;2023-07-02T09:49:37;7.03;;;4.93;;
19589;SDS011;12231;42.782;23.388;2023-07-02T09:52:09;7.18;;;4.68;;
19589;SDS011;12231;42.782;23.388;2023-07-02T09:54:35;5.18;;;4.47;;
19589;SDS011;12231;42.782;23.388;2023-07-02T09:57:01;7.80;;;4.57;;
19589;SDS011;12231;42.782;23.388;2023-07-02T09:59:26;6.32;;;4.47;;
19589;SDS011;12231;42.782;23.388;2023-07-02T10:01:52;6.32;;;4.90;;
19589;SDS011;12231;42.782;23.388;2023-07-02T10:04:18;7.45;;;4.85;;
19589;SDS011;12231;42.782;23.388;2023-07-02T10:06:44;7.10;;;4.88;;
19589;SDS011;12231;42.782;23.388;2023-07-02T10:09:10;6.43;;;4.70;;
19589;SDS011;12231;42.782;23.388;2023-07-02T10:11:36;5.60;;;4.40;;
19589;SDS011;12231;42.782;23.388;2023-07-02T10:14:01;6.80;;;4.75;;
19589;SDS011;12231;42.782;23.388;2023-07-02T10:16:26;7.45;;;4.45;;
19589;SDS011;12231;42.782;23.388;2023-07-02T10:18:55;5.55;;;4.32;;
19589;SDS011;12231;42.782;23.388;2023-07-02T10:21:20;8.10;;;4.13;;
19589;SDS011;12231;42.782;23.388;2023-07-02T10:23:46;5.80;;;4.38;;
19589;SDS011;12231;42.782;23.388;2023-07-02T10:26:15;6.35;;;4.53;;
19589;SDS011;12231;42.782;23.388;2023-07-02T10:28:41;5.28;;;4.30;;
19589;SDS011;12231;42.782;23.388;2023-07-02T10:31:19;7.25;;;4.68;;
19589;SDS011;12231;42.782;23.388;2023-07-02T10:33:44;8.10;;;4.57;;
19589;SDS011;12231;42.782;23.388;2023-07-02T10:36:17;5.78;;;4.13;;
19589;SDS011;12231;42.782;23.388;2023-07-02T10:38:42;6.22;;;3.95;;
19589;SDS011;12231;42.782;23.388;2023-07-02T10:41:07;5.28;;;4.22;;
19589;SDS011;12231;42.782;23.388;2023-07-02T10:43:33;6.70;;;4.60;;
19589;SDS011;12231;42.782;23.388;2023-07-02T10:45:58;6.30;;;4.25;;
19589;SDS011;12231;42.782;23.388;2023-07-02T10:48:25;5.35;;;3.90;;
19589;SDS011;12231;42.782;23.388;2023-07-02T10:50:51;6.65;;;4.40;;
19589;SDS011;12231;42.782;23.388;2023-07-02T10:53:17;6.43;;;4.00;;
19589;SDS011;12231;42.782;23.388;2023-07-02T10:55:42;6.03;;;4.07;;
19589;SDS011;12231;42.782;23.388;2023-07-02T10:58:09;5.13;;;3.95;;
19589;SDS011;12231;42.782;23.388;2023-07-02T11:00:47;7.68;;;4.30;;
19589;SDS011;12231;42.782;23.388;2023-07-02T11:03:30;6.15;;;4.38;;
19589;SDS011;12231;42.782;23.388;2023-07-02T11:05:55;5.60;;;4.47;;
19589;SDS011;12231;42.782;23.388;2023-07-02T11:08:21;4.68;;;4.05;;
19589;SDS011;12231;42.782;23.388;2023-07-02T11:10:46;5.57;;;4.03;;
19589;SDS011;12231;42.782;23.388;2023-07-02T11:15:37;5.80;;;4.25;;
19589;SDS011;12231;42.782;23.388;2023-07-02T11:18:12;4.97;;;4.10;;
19589;SDS011;12231;42.782;23.388;2023-07-02T11:20:38;4.80;;;4.20;;
19589;SDS011;12231;42.782;23.388;2023-07-02T11:23:03;7.43;;;4.93;;
19589;SDS011;12231;42.782;23.388;2023-07-02T11:25:29;6.85;;;4.32;;
19589;SDS011;12231;42.782;23.388;2023-07-02T11:28:03;5.40;;;4.03;;
19589;SDS011;12231;42.782;23.388;2023-07-02T11:30:28;4.97;;;3.90;;
19589;SDS011;12231;42.782;23.388;2023-07-02T11:32:54;6.47;;;4.40;;
19589;SDS011;12231;42.782;23.388;2023-07-02T11:35:20;7.03;;;4.13;;
19589;SDS011;12231;42.782;23.388;2023-07-02T11:37:45;6.40;;;3.70;;
19589;SDS011;12231;42.782;23.388;2023-07-02T11:40:11;6.53;;;4.00;;
19589;SDS011;12231;42.782;23.388;2023-07-02T11:42:37;6.72;;;3.78;;
19589;SDS011;12231;42.782;23.388;2023-07-02T11:45:03;4.43;;;3.83;;
19589;SDS011;12231;42.782;23.388;2023-07-02T11:47:28;5.75;;;3.88;;
19589;SDS011;12231;42.782;23.388;2023-07-02T11:49:53;6.07;;;3.72;;
19589;SDS011;12231;42.782;23.388;2023-07-02T11:52:20;9.02;;;6.55;;
19589;SDS011;12231;42.782;23.388;2023-07-02T11:54:45;8.13;;;4.03;;
19589;SDS011;12231;42.782;23.388;2023-07-02T11:57:10;4.03;;;2.95;;
19589;SDS011;12231;42.782;23.388;2023-07-02T11:59:35;5.32;;;3.63;;
19589;SDS011;12231;42.782;23.388;2023-07-02T12:02:02;6.80;;;4.10;;
19589;SDS011;12231;42.782;23.388;2023-07-02T12:04:27;7.18;;;3.67;;
19589;SDS011;12231;42.782;23.388;2023-07-02T12:06:53;5.03;;;3.80;;
19589;SDS011;12231;42.782;23.388;2023-07-02T12:09:18;5.97;;;3.88;;
19589;SDS011;12231;42.782;23.388;2023-07-02T12:11:43;5.53;;;3.88;;
19589;SDS011;12231;42.782;23.388;2023-07-02T12:14:10;6.60;;;4.15;;
19589;SDS011;12231;42.782;23.388;2023-07-02T12:16:35;5.72;;;4.05;;
19589;SDS011;12231;42.782;23.388;2023-07-02T12:19:00;5.35;;;4.10;;
19589;SDS011;12231;42.782;23.388;2023-07-02T12:21:26;5.13;;;3.97;;
19589;SDS011;12231;42.782;23.388;2023-07-02T12:23:51;5.68;;;4.07;;
19589;SDS011;12231;42.782;23.388;2023-07-02T12:26:16;5.78;;;4.00;;
19589;SDS011;12231;42.782;23.388;2023-07-02T12:28:41;6.07;;;4.28;;
19589;SDS011;12231;42.782;23.388;2023-07-02T12:31:07;6.93;;;4.45;;
19589;SDS011;12231;42.782;23.388;2023-07-02T12:33:32;4.82;;;3.40;;
19589;SDS011;12231;42.782;23.388;2023-07-02T12:35:57;7.95;;;3.72;;
19589;SDS011;12231;42.782;23.388;2023-07-02T12:38:24;6.10;;;3.55;;
19589;SDS011;12231;42.782;23.388;2023-07-02T12:40:49;5.07;;;3.63;;
19589;SDS011;12231;42.782;23.388;2023-07-02T12:43:14;5.53;;;3.60;;
19589;SDS011;12231;42.782;23.388;2023-07-02T12:45:40;6.10;;;3.25;;
19589;SDS011;12231;42.782;23.388;2023-07-02T12:48:05;5.32;;;3.85;;
19589;SDS011;12231;42.782;23.388;2023-07-02T12:50:30;5.22;;;4.03;;
19589;SDS011;12231;42.782;23.388;2023-07-02T12:52:55;4.38;;;3.47;;
19589;SDS011;12231;42.782;23.388;2023-07-02T12:55:21;5.32;;;3.67;;
19589;SDS011;12231;42.782;23.388;2023-07-02T12:57:46;6.18;;;3.72;;
19589;SDS011;12231;42.782;23.388;2023-07-02T13:00:11;5.65;;;3.65;;
19589;SDS011;12231;42.782;23.388;2023-07-02T13:02:37;5.90;;;3.85;;
19589;SDS011;12231;42.782;23.388;2023-07-02T13:05:02;4.50;;;3.00;;
19589;SDS011;12231;42.782;23.388;2023-07-02T13:07:27;4.53;;;3.33;;
19589;SDS011;12231;42.782;23.388;2023-07-02T13:09:55;4.60;;;3.65;;
19589;SDS011;12231;42.782;23.388;2023-07-02T13:12:20;4.60;;;3.38;;
19589;SDS011;12231;42.782;23.388;2023-07-02T13:14:45;4.88;;;3.80;;
19589;SDS011;12231;42.782;23.388;2023-07-02T13:17:10;4.25;;;3.22;;
19589;SDS011;12231;42.782;23.388;2023-07-02T13:19:35;5.55;;;4.45;;
19589;SDS011;12231;42.782;23.388;2023-07-02T13:22:01;7.60;;;4.28;;
19589;SDS011;12231;42.782;23.388;2023-07-02T13:24:27;6.18;;;4.47;;
19589;SDS011;12231;42.782;23.388;2023-07-02T13:26:53;5.90;;;4.35;;
19589;SDS011;12231;42.782;23.388;2023-07-02T13:29:18;5.38;;;4.28;;
19589;SDS011;12231;42.782;23.388;2023-07-02T13:31:44;5.72;;;4.20;;
19589;SDS011;12231;42.782;23.388;2023-07-02T13:34:09;6.10;;;3.75;;
19589;SDS011;12231;42.782;23.388;2023-07-02T13:36:34;4.13;;;3.72;;
19589;SDS011;12231;42.782;23.388;2023-07-02T13:38:59;5.15;;;3.65;;
19589;SDS011;12231;42.782;23.388;2023-07-02T13:41:24;5.43;;;3.95;;
19589;SDS011;12231;42.782;23.388;2023-07-02T13:43:50;5.38;;;3.53;;
19589;SDS011;12231;42.782;23.388;2023-07-02T13:46:15;4.90;;;3.80;;
19589;SDS011;12231;42.782;23.388;2023-07-02T13:48:40;6.90;;;4.65;;
19589;SDS011;12231;42.782;23.388;2023-07-02T13:51:05;5.90;;;4.07;;
19589;SDS011;12231;42.782;23.388;2023-07-02T13:53:33;4.45;;;3.67;;
19589;SDS011;12231;42.782;23.388;2023-07-02T13:55:58;4.80;;;3.88;;
19589;SDS011;12231;42.782;23.388;2023-07-02T13:58:23;5.43;;;4.15;;
19589;SDS011;12231;42.782;23.388;2023-07-02T14:00:48;6.50;;;3.90;;
19589;SDS011;12231;42.782;23.388;2023-07-02T14:03:13;5.60;;;4.20;;
19589;SDS011;12231;42.782;23.388;2023-07-02T14:05:39;4.93;;;3.83;;
19589;SDS011;12231;42.782;23.388;2023-07-02T14:08:05;6.97;;;4.93;;
19589;SDS011;12231;42.782;23.388;2023-07-02T14:10:30;5.20;;;3.97;;
19589;SDS011;12231;42.782;23.388;2023-07-02T14:12:55;6.97;;;4.97;;
19589;SDS011;12231;42.782;23.388;2023-07-02T14:15:22;6.00;;;4.35;;
19589;SDS011;12231;42.782;23.388;2023-07-02T14:17:48;6.13;;;4.57;;
19589;SDS011;12231;42.782;23.388;2023-07-02T14:20:14;7.47;;;4.38;;
19589;SDS011;12231;42.782;23.388;2023-07-02T14:22:39;6.93;;;4.47;;
19589;SDS011;12231;42.782;23.388;2023-07-02T14:25:04;7.15;;;4.40;;
19589;SDS011;12231;42.782;23.388;2023-07-02T14:27:30;10.18;;;4.13;;
19589;SDS011;12231;42.782;23.388;2023-07-02T14:29:55;6.57;;;4.53;;
19589;SDS011;12231;42.782;23.388;2023-07-02T14:32:21;6.68;;;4.25;;